Time;durP1;ratioP1;P1;durP2;ratioP2;P2;SDS_P1;SDS_P2;PMS_P1;PMS_P2;Temp;Humidity;BMP_temperature;BMP_pressure;BME280_temperature;BME280_humidity;BME280_pressure;Samples;Min_cycle;Max_cycle;Signal;HPM_P1;HPM_P2
2022/06/15 00:41:01;;;;;;;7.05;2.62;;;;;;;17.44;100.00;100785.25;1799758;78;25433;-93
2022/06/15 00:43:42;;;;;;;19.42;3.22;;;;;;;17.01;100.00;100829.05;1762352;80;21161;-95
2022/06/15 00:46:39;;;;;;;25.95;3.80;;;;;;;17.01;100.00;100829.05;1692643;83;21201;-95
2022/06/15 00:49:26;;;;;;;22.20;3.08;;;;;;;16.83;100.00;100798.03;1680129;83;21094;-93
2022/06/15 00:52:00;;;;;;;15.32;2.80;;;;;;;16.28;100.00;100732.45;1687289;83;21483;-96
2022/06/15 00:54:28;;;;;;;22.52;3.42;;;;;;;16.23;100.00;100762.42;1656755;85;21535;-95
2022/06/15 00:56:55;;;;;;;24.05;3.60;;;;;;;16.01;100.00;100761.09;1651533;85;21137;-96
2022/06/15 00:59:35;;;;;;;26.00;3.35;;;;;;;16.01;100.00;100761.09;1614376;86;21289;-96
2022/06/15 01:02:02;;;;;;;20.25;3.15;;;;;;;15.93;100.00;100777.23;1577044;89;21109;-95
2022/06/15 01:04:33;;;;;;;12.30;3.15;;;;;;;15.86;100.00;100806.94;1575549;89;21039;-94
2022/06/15 01:08:17;;;;;;;11.68;3.30;;;;;;;15.89;100.00;100849.84;1833541;76;22490;-94
2022/06/15 01:11:10;;;;;;;15.63;3.95;;;;;;;15.92;100.00;100851.19;1691108;82;21181;-93
2022/06/15 01:13:56;;;;;;;9.68;3.15;;;;;;;15.92;100.00;100851.19;1681666;83;21555;-93
2022/06/15 01:16:48;;;;;;;8.60;3.08;;;;;;;15.93;100.00;100865.58;1693433;83;21711;-90
2022/06/15 01:19:22;;;;;;;5.58;2.65;;;;;;;15.97;100.00;100887.83;1692453;83;21181;-86
2022/06/15 01:22:18;;;;;;;9.00;2.62;;;;;;;16.02;100.00;100904.06;1694681;83;20986;-87
2022/06/15 01:25:04;;;;;;;14.60;3.10;;;;;;;16.05;100.00;100841.51;1694747;83;21404;-89
2022/06/15 01:27:41;;;;;;;10.80;3.58;;;;;;;16.05;100.00;100841.51;1688913;83;21187;-92
2022/06/15 01:30:25;;;;;;;8.93;3.17;;;;;;;15.92;100.00;100790.02;1710675;83;21166;-88
2022/06/15 01:33:05;;;;;;;11.57;3.08;;;;;;;15.82;100.00;100762.95;1686936;83;26504;-91
2022/06/15 01:36:09;;;;;;;9.15;3.37;;;;;;;15.79;100.00;100766.25;1682191;84;21066;-89
2022/06/15 01:38:43;;;;;;;5.83;2.55;;;;;;;15.78;100.00;100756.50;1690692;82;21039;-92
2022/06/15 01:41:38;;;;;;;5.85;2.72;;;;;;;15.77;100.00;100752.17;1693493;83;21214;-91
2022/06/15 01:44:18;;;;;;;10.45;3.30;;;;;;;15.77;100.00;100760.33;1705747;82;21059;-91
2022/06/15 01:46:47;;;;;;;20.77;3.47;;;;;;;15.78;100.00;100774.96;1709484;83;20993;-91
2022/06/15 01:49:30;;;;;;;11.63;3.83;;;;;;;15.80;100.00;100786.36;1759252;80;20996;-90
2022/06/15 01:52:00;;;;;;;18.05;3.40;;;;;;;15.85;100.00;100781.39;1750052;80;21572;-92
2022/06/15 01:54:46;;;;;;;8.10;3.40;;;;;;;15.96;100.00;100785.61;1734140;80;21555;-93
2022/06/15 01:57:14;;;;;;;7.58;3.02;;;;;;;15.96;100.00;100785.61;1776037;80;21051;-89
2022/06/15 01:59:52;;;;;;;7.10;3.50;;;;;;;15.99;100.00;100798.63;1771524;80;21539;-91
2022/06/15 02:02:34;;;;;;;9.23;3.02;;;;;;;16.03;100.00;100806.47;1702704;82;21553;-91
2022/06/15 02:05:12;;;;;;;11.60;2.95;;;;;;;16.04;100.00;100814.88;1642451;86;21099;-91
2022/06/15 02:08:00;;;;;;;10.10;3.27;;;;;;;16.05;100.00;100817.04;1632426;87;21189;-90
2022/06/15 02:10:38;;;;;;;10.78;3.30;;;;;;;16.11;100.00;100828.91;1637166;87;21085;-91
2022/06/15 02:13:15;;;;;;;5.80;3.30;;;;;;;16.16;100.00;100830.77;1637097;87;21058;-90
2022/06/15 02:15:46;;;;;;;6.90;3.00;;;;;;;16.18;100.00;100831.83;1568774;89;21150;-88
2022/06/15 02:18:17;;;;;;;6.67;3.33;;;;;;;16.20;100.00;100825.00;1571267;89;21168;-89
2022/06/15 02:20:57;;;;;;;4.30;2.70;;;;;;;16.20;100.00;100825.00;1568387;89;21423;-88
2022/06/15 02:23:25;;;;;;;6.47;2.90;;;;;;;16.15;100.00;100818.29;1569874;89;21003;-88
2022/06/15 02:25:53;;;;;;;7.85;2.83;;;;;;;16.15;100.00;100822.89;1565388;89;21157;-88
2022/06/15 10:34:36;;;;;;;2.42;1.05;;;;;;;29.71;34.90;100952.35;1795324;79;21984;-90
2022/06/15 10:37:14;;;;;;;7.50;1.30;;;;;;;29.81;36.35;100955.24;1754275;81;21055;-89
2022/06/15 10:39:43;;;;;;;3.42;1.15;;;;;;;29.90;35.33;100953.54;1749805;81;21648;-89
2022/06/15 10:42:21;;;;;;;6.70;1.22;;;;;;;29.82;35.90;100956.83;1738445;81;21036;-88
2022/06/15 10:45:00;;;;;;;6.40;1.15;;;;;;;29.76;35.97;100951.42;1756337;81;20968;-88
2022/06/15 11:02:26;;;;;;;3.58;1.35;;;;;;;30.04;35.27;100943.14;1757178;81;21039;-90
2022/06/15 11:04:57;;;;;;;2.22;1.22;;;;;;;30.25;35.36;100940.55;1754902;81;20980;-87
2022/06/15 11:07:28;;;;;;;4.33;1.20;;;;;;;30.40;36.10;100936.48;1757580;81;21012;-88
2022/06/15 11:10:02;;;;;;;3.98;1.10;;;;;;;30.42;34.96;100943.27;1757671;81;21315;-85
2022/06/15 11:12:55;;;;;;;6.85;1.20;;;;;;;29.92;34.37;100932.33;1757496;81;20936;-89
2022/06/15 11:18:33;;;;;;;4.33;1.07;;;;;;;29.01;35.90;100946.97;1707643;84;21157;-88
2022/06/15 11:21:13;;;;;;;7.60;1.17;;;;;;;29.16;35.52;100942.63;1610078;89;21194;-86
2022/06/15 11:24:03;;;;;;;4.45;1.35;;;;;;;29.33;35.62;100932.11;1610343;87;21072;-86
2022/06/15 11:26:52;;;;;;;2.40;1.35;;;;;;;29.49;35.72;100933.27;1610426;88;21613;-89
2022/06/15 11:29:52;;;;;;;2.83;0.95;;;;;;;29.46;35.69;100932.05;1587172;89;21180;-85
2022/06/15 11:32:51;;;;;;;4.85;1.10;;;;;;;29.41;35.35;100925.44;1586815;89;21097;-87
2022/06/15 11:35:46;;;;;;;5.50;1.42;;;;;;;29.63;35.63;100918.16;1521305;94;21577;-87
2022/06/15 11:38:35;;;;;;;2.45;1.00;;;;;;;30.01;35.27;100923.86;1518620;94;21106;-86
2022/06/15 11:41:31;;;;;;;2.95;1.00;;;;;;;30.52;34.49;100919.47;1521274;94;21579;-85
2022/06/15 11:43:59;;;;;;;2.72;1.12;;;;;;;30.66;34.58;100921.55;1467830;97;21770;-90
2022/06/15 11:46:55;;;;;;;5.05;1.30;;;;;;;30.41;33.64;100916.61;1467926;97;21131;-90
2022/06/15 11:49:48;;;;;;;3.62;1.10;;;;;;;30.37;34.02;100914.41;1427166;99;21171;-88
2022/06/15 11:52:36;;;;;;;1.75;0.90;;;;;;;30.20;34.69;100907.51;1427259;100;21161;-89
2022/06/15 11:55:37;;;;;;;4.97;1.25;;;;;;;30.06;34.81;100919.34;1424422;100;21104;-89
2022/06/15 11:58:17;;;;;;;3.75;1.10;;;;;;;29.29;34.72;100918.17;1435804;96;21378;-91
2022/06/15 12:01:01;;;;;;;2.55;1.30;;;;;;;29.12;34.78;100914.59;1480543;96;21098;-89
2022/06/15 12:03:44;;;;;;;6.95;1.00;;;;;;;29.16;34.64;100905.74;1481117;96;21602;-87
2022/06/15 12:06:32;;;;;;;3.33;1.30;;;;;;;29.42;34.72;100919.52;1485588;95;21162;-89
2022/06/15 12:09:28;;;;;;;3.10;1.05;;;;;;;29.13;35.12;100912.05;1503712;93;21504;-88
2022/06/15 12:15:17;;;;;;;2.70;1.10;;;;;;;28.84;35.75;100914.44;1571365;91;21555;-85
2022/06/15 12:18:00;;;;;;;7.72;1.02;;;;;;;28.59;36.07;100913.30;1571611;91;21066;-86
2022/06/15 12:20:51;;;;;;;2.37;1.10;;;;;;;28.81;36.14;100915.20;1572774;88;21701;-89
2022/06/15 12:23:31;;;;;;;2.77;1.10;;;;;;;29.20;36.13;100911.53;1591642;90;21221;-90
2022/06/15 12:26:22;;;;;;;4.83;1.10;;;;;;;29.66;35.97;100904.90;1641646;85;21145;-86
2022/06/15 12:29:09;;;;;;;3.80;1.17;;;;;;;29.72;36.32;100913.09;1685029;85;21472;-87
2022/06/15 12:31:49;;;;;;;4.87;1.27;;;;;;;30.05;35.29;100908.00;1681895;85;21004;-86
2022/06/15 12:34:41;;;;;;;5.83;1.40;;;;;;;30.31;35.37;100911.80;1682481;85;21074;-84
2022/06/15 12:37:22;;;;;;;6.60;1.10;;;;;;;29.88;35.95;100919.20;1681624;85;21007;-87
2022/06/15 12:40:19;;;;;;;4.70;1.05;;;;;;;29.60;35.02;100903.62;1682455;85;21185;-87
2022/06/15 12:42:51;;;;;;;2.58;0.82;;;;;;;28.46;34.37;100910.75;1681552;85;21087;-89
2022/06/15 12:45:27;;;;;;;2.20;0.98;;;;;;;28.18;36.01;100909.73;1685216;85;21078;-88
2022/06/15 12:47:57;;;;;;;2.12;1.17;;;;;;;28.57;36.74;100908.73;1685336;85;21130;-87
2022/06/15 12:50:40;;;;;;;3.92;0.90;;;;;;;28.76;36.06;100909.38;1633067;87;21040;-84
2022/06/15 12:53:48;;;;;;;2.95;1.12;;;;;;;28.83;35.86;100908.69;1630749;87;22068;-87
2022/06/15 13:08:47;;;;;;;8.28;0.93;;;;;;;28.47;35.46;100903.23;1813255;79;22743;-87
2022/06/15 13:11:17;;;;;;;2.70;1.07;;;;;;;28.36;35.93;100899.50;1788462;80;21046;-89
2022/06/15 13:13:53;;;;;;;3.87;1.07;;;;;;;28.46;35.72;100901.64;1721254;83;22183;-87
2022/06/15 13:16:41;;;;;;;3.40;1.12;;;;;;;28.71;36.12;100898.63;1721488;83;21082;-88
2022/06/15 13:19:28;;;;;;;4.42;0.90;;;;;;;28.82;35.85;100900.73;1721489;83;21030;-87
2022/06/15 13:22:11;;;;;;;6.08;1.30;;;;;;;28.98;36.17;100889.65;1721054;83;21051;-86
2022/06/15 13:24:56;;;;;;;2.30;1.05;;;;;;;29.03;35.04;100889.12;1718728;83;21630;-86
2022/06/15 13:27:40;;;;;;;4.55;1.00;;;;;;;28.76;35.72;100896.09;1723227;83;21200;-86
2022/06/15 13:30:27;;;;;;;2.62;0.90;;;;;;;28.70;34.99;100893.45;1726682;83;21125;-89
2022/06/15 13:33:07;;;;;;;7.55;1.00;;;;;;;28.51;35.59;100891.62;1675691;85;21097;-86
2022/06/15 13:36:13;;;;;;;3.58;0.93;;;;;;;28.52;36.27;100889.05;1675782;85;21022;-84
2022/06/15 13:38:42;;;;;;;1.37;0.82;;;;;;;28.67;36.77;100883.90;1675706;84;20954;-88
2022/06/15 13:41:15;;;;;;;3.33;1.40;;;;;;;28.76;35.40;100878.06;1675889;85;21101;-88
2022/06/15 13:43:48;;;;;;;1.80;0.60;;;;;;;28.85;35.95;100884.13;1673140;85;21040;-85
2022/06/15 13:46:34;;;;;;;1.65;1.00;;;;;;;28.85;35.18;100877.78;1675530;85;21003;-87
2022/06/15 13:49:08;;;;;;;3.12;1.00;;;;;;;28.84;35.72;100883.12;1675643;84;21078;-87
2022/06/15 13:51:45;;;;;;;2.58;0.80;;;;;;;28.89;35.69;100883.59;1589976;89;21548;-87
2022/06/15 13:54:25;;;;;;;5.20;0.93;;;;;;;28.94;34.83;100879.67;1590233;90;21171;-87
2022/06/15 13:57:20;;;;;;;3.55;1.00;;;;;;;28.61;34.60;100883.22;1587335;90;21076;-85
2022/06/15 14:00:20;;;;;;;1.65;0.93;;;;;;;28.57;34.46;100882.39;1589052;90;21137;-87
2022/06/15 14:03:03;;;;;;;2.72;0.70;;;;;;;28.53;34.09;100873.44;1589929;90;21134;-84
2022/06/15 14:05:47;;;;;;;3.20;0.70;;;;;;;28.61;35.20;100870.15;1590181;90;21008;-89
2022/06/15 14:08:36;;;;;;;6.00;0.70;;;;;;;28.79;35.29;100873.74;1577923;90;21121;-89
2022/06/15 14:11:27;;;;;;;1.00;0.65;;;;;;;28.93;35.52;100875.31;1587911;89;21058;-86
2022/06/15 14:13:58;;;;;;;1.02;0.60;;;;;;;28.68;34.65;100879.17;1588482;90;21645;-84
2022/06/15 14:17:11;;;;;;;5.58;0.57;;;;;;;28.55;34.50;100879.98;1588228;90;21110;-87
2022/06/15 14:19:53;;;;;;;1.67;0.50;;;;;;;28.49;33.96;100878.70;1588113;90;21054;-88
2022/06/15 14:22:22;;;;;;;1.30;0.50;;;;;;;28.45;34.03;100875.89;1618169;87;21008;-86
2022/06/15 14:24:48;;;;;;;2.15;0.62;;;;;;;28.39;33.65;100875.19;1639870;87;21070;-86
2022/06/15 14:27:29;;;;;;;2.55;0.72;;;;;;;28.31;34.71;100872.88;1639920;87;21023;-89
2022/06/15 14:29:55;;;;;;;1.65;0.57;;;;;;;28.30;33.98;100878.23;1661552;85;21681;-87
2022/06/15 14:32:29;;;;;;;1.42;0.60;;;;;;;28.12;34.83;100880.73;1668745;85;21038;-89
2022/06/15 14:35:20;;;;;;;2.25;0.60;;;;;;;27.96;34.73;100878.09;1631563;88;21171;-87
2022/06/15 14:38:01;;;;;;;8.15;0.80;;;;;;;27.84;35.00;100886.60;1605290;89;21096;-88
2022/06/15 14:40:40;;;;;;;3.55;0.60;;;;;;;27.69;34.73;100886.12;1605432;89;21045;-85
2022/06/15 14:43:09;;;;;;;3.12;0.60;;;;;;;27.68;34.72;100887.27;1661476;86;21086;-88
2022/06/15 14:45:43;;;;;;;1.45;0.62;;;;;;;27.64;35.33;100881.09;1661760;86;21737;-85
2022/06/15 14:48:35;;;;;;;1.60;0.70;;;;;;;27.77;35.54;100886.47;1661669;86;21171;-88
2022/06/15 14:51:09;;;;;;;5.42;0.72;;;;;;;27.74;35.48;100884.44;1661525;86;21022;-90
2022/06/15 14:53:43;;;;;;;4.53;1.27;;;;;;;27.83;35.25;100887.78;1661497;86;21570;-87
2022/06/15 14:56:10;;;;;;;1.17;0.80;;;;;;;27.88;35.55;100893.58;1673788;85;21038;-89
2022/06/15 14:58:36;;;;;;;1.50;0.70;;;;;;;27.81;34.72;100887.34;1673614;85;21565;-89
2022/06/15 15:01:11;;;;;;;2.37;0.70;;;;;;;27.74;35.26;100892.75;1673909;85;21894;-87
2022/06/15 15:03:41;;;;;;;2.20;0.80;;;;;;;27.87;35.21;100887.25;1673904;85;21042;-87
2022/06/15 15:06:15;;;;;;;3.50;0.68;;;;;;;28.02;34.88;100887.69;1673753;85;21600;-87
2022/06/15 15:08:45;;;;;;;1.30;0.80;;;;;;;28.06;35.04;100894.66;1647319;86;20999;-86
2022/06/15 15:11:37;;;;;;;2.85;0.80;;;;;;;27.91;34.49;100892.25;1625881;88;21062;-88
2022/06/15 15:14:17;;;;;;;3.47;0.65;;;;;;;27.88;34.83;100892.20;1587945;90;21337;-86
2022/06/15 15:17:04;;;;;;;2.40;0.60;;;;;;;28.12;34.41;100893.20;1587938;90;21559;-89
2022/06/15 15:19:42;;;;;;;1.90;0.68;;;;;;;28.24;34.61;100894.37;1524242;94;21083;-86
2022/06/15 15:22:19;;;;;;;5.50;0.80;;;;;;;28.35;34.70;100902.03;1524543;94;21113;-89
2022/06/15 15:25:01;;;;;;;1.62;0.70;;;;;;;28.20;33.71;100898.25;1502608;95;21019;-86
2022/06/15 15:37:35;;;;;;;4.53;0.70;;;;;;;27.71;35.15;100908.69;1470993;97;21145;-89
2022/06/15 15:38:48;;;;;;;2.95;0.70;;;;;;;27.62;35.58;100911.73;1470881;97;21120;-88
2022/06/15 15:41:14;;;;;;;1.17;0.78;;;;;;;27.54;36.69;100914.94;1471032;97;21888;-91
2022/06/15 15:43:40;;;;;;;1.35;0.60;;;;;;;27.46;36.23;100922.89;1470907;97;21061;-90
2022/06/15 15:46:07;;;;;;;2.75;0.70;;;;;;;27.28;36.32;100917.61;1481655;96;20926;-91
2022/06/15 15:48:33;;;;;;;3.50;0.70;;;;;;;27.15;36.49;100915.59;1492467;96;21132;-88
2022/06/15 15:50:59;;;;;;;4.50;0.78;;;;;;;27.05;36.76;100921.08;1492779;96;21015;-88
2022/06/15 15:53:26;;;;;;;2.35;0.65;;;;;;;26.86;37.02;100918.31;1500022;95;21083;-89
2022/06/15 15:55:54;;;;;;;2.87;0.78;;;;;;;26.69;37.29;100923.67;1502992;95;21698;-90
2022/06/15 15:58:22;;;;;;;1.20;0.55;;;;;;;26.59;37.32;100921.45;1503107;95;21603;-89
2022/06/15 16:00:51;;;;;;;2.70;0.68;;;;;;;26.51;37.45;100917.75;1503556;95;21092;-89
2022/06/15 16:03:20;;;;;;;1.62;0.62;;;;;;;26.46;37.53;100916.61;1503284;95;21150;-90
2022/06/15 16:05:50;;;;;;;3.85;0.70;;;;;;;26.47;38.12;100914.87;1503637;95;21231;-85
2022/06/15 16:08:18;;;;;;;2.37;1.30;;;;;;;26.50;37.94;100918.34;1520527;92;21145;-90
2022/06/15 16:10:48;;;;;;;1.70;0.75;;;;;;;26.57;38.20;100914.92;1512195;92;21105;-90
2022/06/15 16:13:15;;;;;;;5.12;0.90;;;;;;;26.63;38.86;100915.45;1548296;92;21494;-90
2022/06/15 16:15:45;;;;;;;4.30;1.10;;;;;;;26.71;38.58;100915.83;1561686;90;21083;-89
2022/06/15 16:18:15;;;;;;;4.37;0.90;;;;;;;26.73;38.19;100914.86;1554612;92;21141;-85
2022/06/15 16:20:44;;;;;;;1.90;0.93;;;;;;;26.77;38.74;100919.91;1594532;87;21070;-88
2022/06/15 16:23:14;;;;;;;2.52;0.65;;;;;;;26.77;38.35;100920.47;1634588;87;21019;-90
2022/06/15 16:25:41;;;;;;;1.52;0.65;;;;;;;26.74;37.95;100917.87;1613031;88;21044;-88
2022/06/15 16:28:09;;;;;;;1.98;0.40;;;;;;;26.75;38.11;100919.46;1630851;88;21635;-85
2022/06/15 16:30:36;;;;;;;0.90;0.50;;;;;;;26.70;37.91;100923.30;1630796;88;21542;-88
2022/06/15 16:33:05;;;;;;;2.08;0.60;;;;;;;26.60;37.88;100917.55;1630763;88;21088;-85
2022/06/15 16:35:33;;;;;;;0.70;0.50;;;;;;;26.50;38.96;100922.48;1630647;88;21227;-86
2022/06/15 16:37:59;;;;;;;1.12;0.60;;;;;;;26.40;38.01;100923.58;1630470;88;21497;-90
2022/06/15 16:40:25;;;;;;;1.12;0.60;;;;;;;26.26;38.35;100922.06;1687137;85;21097;-90
2022/06/15 16:42:51;;;;;;;1.00;0.65;;;;;;;26.14;37.99;100936.57;1686996;85;21186;-88
2022/06/15 16:45:17;;;;;;;3.85;0.80;;;;;;;25.91;38.64;100937.77;1687044;85;20895;-88
2022/06/15 16:47:43;;;;;;;2.58;0.50;;;;;;;25.64;40.15;100932.51;1687057;85;21030;-88
2022/06/15 16:50:10;;;;;;;2.50;0.60;;;;;;;25.48;41.02;100942.15;1686549;85;21046;-90
2022/06/15 16:55:13;;;;;;;2.67;0.70;;;;;;;25.03;42.24;100934.92;1598688;89;21020;-88
2022/06/15 16:57:39;;;;;;;1.80;0.70;;;;;;;24.75;42.52;100947.30;1598683;89;21133;-88
2022/06/15 17:00:07;;;;;;;1.77;0.95;;;;;;;24.54;43.43;100952.95;1599041;89;21110;-90
2022/06/15 17:02:33;;;;;;;0.60;0.60;;;;;;;24.29;44.06;100948.78;1598884;89;21656;-88
2022/06/15 17:04:59;;;;;;;3.98;0.80;;;;;;;24.11;44.23;100950.95;1598774;89;20920;-89
2022/06/15 17:07:25;;;;;;;1.92;0.70;;;;;;;23.86;45.14;100958.39;1599668;88;21513;-88
2022/06/15 17:09:53;;;;;;;2.37;1.05;;;;;;;23.67;45.30;100962.99;1618131;87;21034;-89
2022/06/15 17:12:21;;;;;;;0.80;0.50;;;;;;;23.48;45.96;100962.72;1618085;87;21116;-89
2022/06/15 17:14:48;;;;;;;2.40;0.72;;;;;;;23.20;46.05;100967.97;1618073;87;21096;-90
2022/06/15 17:17:15;;;;;;;1.57;0.75;;;;;;;22.95;46.93;100969.79;1618314;87;21140;-90
2022/06/15 17:19:41;;;;;;;1.47;0.70;;;;;;;22.76;46.35;100967.44;1618391;88;21080;-89
2022/06/15 17:22:08;;;;;;;3.60;0.80;;;;;;;22.60;46.57;100969.98;1630308;86;21532;-89
2022/06/15 17:24:34;;;;;;;3.12;0.80;;;;;;;22.49;47.00;100968.73;1655701;86;21607;-89
2022/06/15 17:27:01;;;;;;;1.65;0.80;;;;;;;22.32;46.83;100964.92;1655753;86;21063;-88
2022/06/15 17:29:29;;;;;;;1.27;0.72;;;;;;;22.14;47.18;100968.86;1655787;86;20984;-89
2022/06/15 17:32:01;;;;;;;2.55;0.80;;;;;;;22.01;47.76;100976.17;1655425;86;21779;-89
2022/06/15 17:34:28;;;;;;;2.60;0.70;;;;;;;21.81;48.38;100972.19;1655649;86;21149;-89
2022/06/15 17:36:55;;;;;;;2.42;0.72;;;;;;;21.63;48.13;100974.73;1655414;86;21110;-88
2022/06/15 17:39:22;;;;;;;3.52;0.78;;;;;;;21.48;49.33;100978.78;1655354;86;21028;-88
2022/06/15 17:41:51;;;;;;;1.47;0.80;;;;;;;21.35;50.21;100978.34;1655615;86;21051;-89
2022/06/15 17:44:19;;;;;;;1.45;0.80;;;;;;;21.19;50.26;100985.69;1655432;86;21161;-89
2022/06/15 17:46:45;;;;;;;2.37;0.80;;;;;;;21.02;51.30;100988.41;1655203;86;21114;-89
2022/06/15 17:49:14;;;;;;;1.92;0.60;;;;;;;20.78;51.74;100986.92;1655498;86;21155;-89
2022/06/15 17:51:41;;;;;;;5.92;1.07;;;;;;;20.58;52.67;100991.62;1701005;80;20988;-89
2022/06/15 17:54:07;;;;;;;1.80;0.80;;;;;;;20.37;53.75;100989.98;1784823;80;21495;-90
2022/06/15 17:56:40;;;;;;;8.53;1.02;;;;;;;20.21;55.35;100989.61;1785017;80;21136;-89
2022/06/15 17:59:10;;;;;;;3.15;0.78;;;;;;;20.05;57.05;100999.33;1784949;80;20983;-90
2022/06/15 18:01:38;;;;;;;1.67;0.80;;;;;;;19.92;57.75;101003.77;1784997;80;21097;-90
2022/06/15 18:04:04;;;;;;;4.55;0.90;;;;;;;19.73;58.98;101010.23;1784895;80;21012;-89
2022/06/15 18:06:30;;;;;;;3.08;1.00;;;;;;;19.59;59.95;101020.41;1785006;80;20967;-90
2022/06/15 18:08:56;;;;;;;4.37;1.00;;;;;;;19.45;60.85;101019.66;1778763;80;21516;-90
2022/06/15 18:11:22;;;;;;;6.55;1.35;;;;;;;19.33;62.43;101021.56;1774385;80;20889;-89
2022/06/15 18:13:52;;;;;;;4.75;0.90;;;;;;;19.21;64.03;101021.30;1774385;80;21567;-89
2022/06/15 18:16:24;;;;;;;3.02;1.47;;;;;;;19.10;65.23;101024.00;1774411;80;21496;-90
2022/06/15 18:18:56;;;;;;;6.65;1.20;;;;;;;18.98;66.80;101030.79;1774539;80;21027;-90
2022/06/15 18:21:29;;;;;;;4.80;1.47;;;;;;;18.89;68.16;101032.63;1774727;80;21059;-90
2022/06/15 18:23:57;;;;;;;8.33;1.67;;;;;;;18.76;69.09;101031.50;1774640;80;22750;-90
2022/06/15 18:26:23;;;;;;;7.67;1.67;;;;;;;18.67;70.71;101037.39;1774512;80;21003;-90
2022/06/15 18:28:50;;;;;;;4.50;1.50;;;;;;;18.56;73.09;101031.88;1774591;80;21043;-89
2022/06/15 18:31:17;;;;;;;4.12;1.75;;;;;;;18.47;74.03;101027.70;1774544;80;21039;-90
2022/06/15 18:33:44;;;;;;;7.55;1.85;;;;;;;18.38;75.03;101039.88;1774415;80;21080;-89
2022/06/15 18:36:14;;;;;;;5.55;1.47;;;;;;;18.28;76.35;101043.33;1774249;80;20983;-89
2022/06/15 18:38:43;;;;;;;7.45;1.92;;;;;;;18.20;79.22;101041.28;1774068;80;21525;-88
2022/06/15 18:41:09;;;;;;;9.15;2.02;;;;;;;18.09;80.41;101042.84;1774532;80;21432;-90
2022/06/15 18:49:07;;;;;;;7.53;1.85;;;;;;;17.81;84.63;101048.75;1773905;80;21520;-90
2022/06/15 18:51:34;;;;;;;7.35;1.90;;;;;;;17.70;85.97;101047.25;1773982;80;21537;-89
2022/06/15 18:54:00;;;;;;;4.60;1.90;;;;;;;17.59;87.76;101048.51;1774476;80;21114;-88
2022/06/15 18:56:26;;;;;;;12.98;2.05;;;;;;;17.49;88.29;101048.92;1774344;80;21126;-89
2022/06/15 18:58:54;;;;;;;7.58;1.80;;;;;;;17.43;90.92;101053.39;1774449;80;21119;-90
2022/06/15 19:01:21;;;;;;;6.90;2.20;;;;;;;17.42;90.31;101050.41;1774205;80;21007;-89
2022/06/15 19:03:47;;;;;;;5.37;2.22;;;;;;;17.39;92.93;101049.08;1773898;80;21946;-90
2022/06/15 19:06:13;;;;;;;8.88;2.12;;;;;;;17.35;93.67;101049.95;1774469;80;21479;-90
2022/06/15 19:08:42;;;;;;;11.63;1.90;;;;;;;17.32;94.14;101049.98;1776708;80;21027;-89
2022/06/15 19:11:09;;;;;;;4.10;1.77;;;;;;;17.28;94.65;101058.50;1782451;80;22079;-90
2022/06/15 19:13:36;;;;;;;8.70;2.10;;;;;;;17.23;95.39;101056.64;1782571;80;21000;-90
2022/06/15 19:16:03;;;;;;;10.00;2.00;;;;;;;17.21;95.05;101062.95;1782631;80;21496;-89
2022/06/15 19:18:29;;;;;;;5.67;2.37;;;;;;;17.02;96.85;101043.84;1782548;80;21055;-90
2022/06/15 19:20:59;;;;;;;4.08;1.90;;;;;;;17.02;96.85;101043.84;1782626;80;21035;-90
2022/06/15 19:23:26;;;;;;;4.42;2.20;;;;;;;17.00;97.33;101059.69;1715778;83;22045;-90
2022/06/15 19:25:54;;;;;;;7.25;2.12;;;;;;;17.00;97.33;101059.69;1715568;83;21081;-89
2022/06/15 19:28:21;;;;;;;6.90;2.12;;;;;;;16.97;99.43;101057.55;1715786;83;21074;-91
2022/06/15 19:30:49;;;;;;;6.42;2.05;;;;;;;16.97;99.43;101057.55;1715421;83;21503;-89
2022/06/15 19:33:15;;;;;;;8.25;2.37;;;;;;;16.96;99.36;101060.55;1715692;83;21055;-89
2022/06/15 19:35:41;;;;;;;6.75;2.27;;;;;;;16.93;100.00;101070.66;1715838;83;21879;-88
2022/06/15 19:38:07;;;;;;;12.98;2.75;;;;;;;16.90;100.00;101065.80;1715713;83;20972;-90
2022/06/15 19:40:35;;;;;;;4.47;1.95;;;;;;;16.87;100.00;101069.09;1715759;83;21262;-87
2022/06/15 19:43:12;;;;;;;8.00;2.05;;;;;;;16.82;100.00;101066.43;1715800;83;21007;-89
2022/06/15 19:45:42;;;;;;;9.78;2.10;;;;;;;16.79;100.00;101063.73;1715787;83;21614;-88
2022/06/15 19:48:11;;;;;;;8.33;2.42;;;;;;;16.64;100.00;101044.27;1715845;83;21508;-89
2022/06/15 19:50:41;;;;;;;9.10;2.12;;;;;;;16.54;100.00;101052.01;1715463;83;21102;-89
2022/06/15 19:53:09;;;;;;;5.83;2.00;;;;;;;16.54;100.00;101052.01;1715699;83;21003;-89
2022/06/15 19:55:36;;;;;;;7.08;1.90;;;;;;;16.62;100.00;101069.62;1715847;83;21042;-89
2022/06/15 19:58:03;;;;;;;6.22;1.75;;;;;;;16.58;100.00;101069.36;1715465;83;21523;-89
2022/06/15 20:00:29;;;;;;;6.90;1.92;;;;;;;16.58;100.00;101067.20;1715770;83;21088;-89
2022/06/15 20:02:55;;;;;;;7.55;2.22;;;;;;;16.55;100.00;101080.02;1715632;83;21669;-89
2022/06/15 20:05:21;;;;;;;5.95;1.80;;;;;;;16.47;100.00;101077.92;1715644;83;20979;-88
2022/06/15 20:07:47;;;;;;;5.47;1.70;;;;;;;16.43;100.00;101079.61;1715709;83;21055;-90
2022/06/15 20:10:19;;;;;;;4.53;1.77;;;;;;;16.40;100.00;101077.46;1709507;83;21729;-88
2022/06/15 20:12:47;;;;;;;5.67;1.95;;;;;;;16.38;100.00;101078.28;1713705;83;21095;-89
2022/06/15 20:15:13;;;;;;;4.40;1.87;;;;;;;16.33;100.00;101081.88;1713723;83;21067;-88
2022/06/15 20:17:43;;;;;;;4.72;1.85;;;;;;;16.30;100.00;101074.30;1713639;83;21149;-88
2022/06/15 20:20:14;;;;;;;4.47;1.90;;;;;;;16.24;100.00;101076.25;1672200;85;21019;-89
2022/06/15 20:22:45;;;;;;;7.25;1.62;;;;;;;16.24;100.00;101076.25;1679442;85;21027;-89
2022/06/15 20:25:13;;;;;;;5.65;1.60;;;;;;;16.18;100.00;101071.12;1679652;85;21317;-89
2022/06/15 20:27:47;;;;;;;8.30;1.70;;;;;;;16.15;100.00;101070.33;1679121;85;21603;-88
2022/06/15 20:30:13;;;;;;;4.65;1.80;;;;;;;16.14;100.00;101074.97;1677089;85;21042;-87
2022/06/15 20:32:39;;;;;;;4.37;1.77;;;;;;;16.11;100.00;101072.81;1679525;85;21028;-89
2022/06/15 20:35:06;;;;;;;8.70;1.70;;;;;;;16.07;100.00;101071.77;1679591;85;20873;-89
2022/06/15 20:37:32;;;;;;;7.92;1.90;;;;;;;16.03;100.00;101077.50;1679329;85;21080;-89
2022/06/15 20:39:58;;;;;;;3.85;1.70;;;;;;;16.00;100.00;101077.55;1679843;85;20963;-89
2022/06/15 20:42:28;;;;;;;3.20;1.70;;;;;;;15.95;100.00;101079.49;1679615;85;20975;-89
2022/06/15 20:44:57;;;;;;;7.72;1.75;;;;;;;15.92;100.00;101081.42;1679415;85;21055;-89
2022/06/15 20:47:24;;;;;;;6.03;2.25;;;;;;;15.87;100.00;101091.77;1679571;85;21059;-90
2022/06/15 20:49:54;;;;;;;6.05;2.27;;;;;;;15.85;100.00;101085.27;1679294;85;21193;-89
2022/06/15 20:52:22;;;;;;;5.42;2.10;;;;;;;15.80;100.00;101089.38;1679600;85;21115;-88
2022/06/15 20:54:49;;;;;;;5.20;1.92;;;;;;;15.78;100.00;101092.11;1679534;85;21079;-89
2022/06/15 20:57:15;;;;;;;4.28;1.92;;;;;;;15.75;100.00;101092.12;1679574;85;21035;-89
2022/06/15 20:59:43;;;;;;;3.67;1.60;;;;;;;15.75;100.00;101089.41;1679655;85;21016;-89
2022/06/15 21:02:13;;;;;;;4.85;1.82;;;;;;;15.74;100.00;101090.50;1679790;85;21126;-88
2022/06/15 21:04:40;;;;;;;4.42;1.60;;;;;;;15.71;100.00;101089.72;1679415;85;21082;-89
2022/06/15 21:07:21;;;;;;;8.05;1.45;;;;;;;15.70;100.00;101084.00;1679340;85;21037;-89
2022/06/15 21:17:35;;;;;;;7.37;1.72;;;;;;;15.68;100.00;101080.77;1675831;85;21076;-88
2022/06/15 21:17:36;;;;;;;5.47;1.60;;;;;;;15.61;100.00;101082.94;1747299;80;20963;-88
2022/06/15 21:20:12;;;;;;;4.90;1.45;;;;;;;15.57;100.00;101083.25;1782342;80;21004;-88
2022/06/15 21:22:40;;;;;;;6.25;1.75;;;;;;;15.53;100.00;101078.09;1715322;83;21082;-89
2022/06/15 21:25:11;;;;;;;4.17;1.65;;;;;;;15.49;100.00;101083.83;1715748;83;21606;-89
2022/06/15 21:27:40;;;;;;;5.28;1.77;;;;;;;15.48;100.00;101087.66;1715730;83;22293;-88
2022/06/15 21:30:08;;;;;;;2.75;1.92;;;;;;;15.48;100.00;101083.03;1715728;83;21102;-89
2022/06/15 21:32:34;;;;;;;3.67;1.90;;;;;;;15.48;100.00;101076.78;1716098;83;21050;-89
2022/06/15 21:35:00;;;;;;;4.33;1.98;;;;;;;15.41;100.00;101081.98;1715779;83;21102;-89
2022/06/15 21:37:26;;;;;;;3.77;1.82;;;;;;;15.35;100.00;101085.82;1715986;83;20995;-88